sensor_id;sensor_type;location;lat;lon;timestamp;pressure;altitude;pressure_sealevel;temperature;humidity
23616;BME280;11985;49.404;7.734;2023-02-11T00:00:59;99232.16;;;-0.50;100.00
23616;BME280;11985;49.404;7.734;2023-02-11T00:06:07;99231.97;;;-0.47;100.00
23616;BME280;11985;49.404;7.734;2023-02-11T00:11:12;99226.81;;;-0.47;100.00
23616;BME280;11985;49.404;7.734;2023-02-11T00:16:16;99230.69;;;-0.40;100.00
23616;BME280;11985;49.404;7.734;2023-02-11T00:21:21;99217.41;;;-0.34;100.00
23616;BME280;11985;49.404;7.734;2023-02-11T00:26:24;99223.91;;;-0.27;100.00
23616;BME280;11985;49.404;7.734;2023-02-11T00:31:26;99199.47;;;-0.23;100.00
23616;BME280;11985;49.404;7.734;2023-02-11T00:36:30;99207.53;;;-0.13;100.00
23616;BME280;11985;49.404;7.734;2023-02-11T00:41:32;99200.81;;;-0.16;100.00
23616;BME280;11985;49.404;7.734;2023-02-11T00:46:33;99200.50;;;-0.11;100.00
23616;BME280;11985;49.404;7.734;2023-02-11T00:51:36;99201.72;;;-0.03;100.00
23616;BME280;11985;49.404;7.734;2023-02-11T00:56:38;99200.91;;;-0.03;100.00
23616;BME280;11985;49.404;7.734;2023-02-11T01:01:39;99203.59;;;-0.05;100.00
23616;BME280;11985;49.404;7.734;2023-02-11T01:06:42;99202.56;;;-0.02;100.00
23616;BME280;11985;49.404;7.734;2023-02-11T01:11:44;99205.81;;;0.02;100.00
23616;BME280;11985;49.404;7.734;2023-02-11T01:16:45;99212.47;;;0.06;100.00
23616;BME280;11985;49.404;7.734;2023-02-11T01:21:48;99212.28;;;0.09;100.00
23616;BME280;11985;49.404;7.734;2023-02-11T01:26:49;99201.09;;;0.08;100.00
23616;BME280;11985;49.404;7.734;2023-02-11T01:31:51;99196.72;;;0.09;100.00
23616;BME280;11985;49.404;7.734;2023-02-11T01:36:57;99194.97;;;0.09;100.00
23616;BME280;11985;49.404;7.734;2023-02-11T01:41:59;99196.63;;;0.10;100.00
23616;BME280;11985;49.404;7.734;2023-02-11T01:47:00;99191.28;;;0.13;100.00
23616;BME280;11985;49.404;7.734;2023-02-11T01:52:09;99178.13;;;0.16;100.00
23616;BME280;11985;49.404;7.734;2023-02-11T01:57:15;99181.19;;;0.23;100.00
23616;BME280;11985;49.404;7.734;2023-02-11T02:02:29;99163.06;;;0.23;100.00
23616;BME280;11985;49.404;7.734;2023-02-11T02:07:38;99150.28;;;0.20;100.00
23616;BME280;11985;49.404;7.734;2023-02-11T02:12:42;99145.09;;;0.20;100.00
23616;BME280;11985;49.404;7.734;2023-02-11T02:17:49;99136.38;;;0.21;100.00
23616;BME280;11985;49.404;7.734;2023-02-11T02:23:20;99135.00;;;0.15;100.00
23616;BME280;11985;49.404;7.734;2023-02-11T02:28:40;99134.16;;;0.15;100.00
23616;BME280;11985;49.404;7.734;2023-02-11T02:33:52;99125.00;;;0.23;100.00
23616;BME280;11985;49.404;7.734;2023-02-11T02:38:59;99115.47;;;0.24;100.00
23616;BME280;11985;49.404;7.734;2023-02-11T02:44:03;99110.47;;;0.21;100.00
23616;BME280;11985;49.404;7.734;2023-02-11T02:49:12;99134.00;;;0.18;100.00
23616;BME280;11985;49.404;7.734;2023-02-11T02:54:38;99127.34;;;0.14;100.00
23616;BME280;11985;49.404;7.734;2023-02-11T02:59:54;99117.91;;;0.13;100.00
23616;BME280;11985;49.404;7.734;2023-02-11T03:05:05;99130.31;;;0.08;100.00
23616;BME280;11985;49.404;7.734;2023-02-11T03:10:13;99140.66;;;-0.07;100.00
23616;BME280;11985;49.404;7.734;2023-02-11T03:15:18;99140.47;;;-0.18;100.00
23616;BME280;11985;49.404;7.734;2023-02-11T03:20:22;99144.19;;;-0.22;100.00
23616;BME280;11985;49.404;7.734;2023-02-11T03:25:28;99126.78;;;-0.20;100.00
23616;BME280;11985;49.404;7.734;2023-02-11T03:30:33;99142.44;;;-0.21;100.00
23616;BME280;11985;49.404;7.734;2023-02-11T03:35:44;99149.00;;;-0.16;100.00
23616;BME280;11985;49.404;7.734;2023-02-11T03:40:49;99154.63;;;-0.09;100.00
23616;BME280;11985;49.404;7.734;2023-02-11T03:45:52;99146.78;;;-0.08;100.00
23616;BME280;11985;49.404;7.734;2023-02-11T03:50:57;99148.06;;;-0.01;100.00
23616;BME280;11985;49.404;7.734;2023-02-11T03:56:02;99136.59;;;0.04;100.00
23616;BME280;11985;49.404;7.734;2023-02-11T04:01:05;99141.03;;;0.02;100.00
23616;BME280;11985;49.404;7.734;2023-02-11T04:06:10;99146.31;;;0.00;100.00
23616;BME280;11985;49.404;7.734;2023-02-11T04:11:11;99134.19;;;0.01;100.00
23616;BME280;11985;49.404;7.734;2023-02-11T04:16:13;99115.31;;;-0.02;100.00
23616;BME280;11985;49.404;7.734;2023-02-11T04:21:16;99100.59;;;-0.01;100.00
23616;BME280;11985;49.404;7.734;2023-02-11T04:26:17;99088.31;;;0.03;100.00
23616;BME280;11985;49.404;7.734;2023-02-11T04:31:19;99092.16;;;0.10;100.00
23616;BME280;11985;49.404;7.734;2023-02-11T04:36:22;99101.03;;;0.20;100.00
23616;BME280;11985;49.404;7.734;2023-02-11T04:41:23;99086.09;;;0.38;100.00
23616;BME280;11985;49.404;7.734;2023-02-11T04:46:25;99064.53;;;0.37;100.00
23616;BME280;11985;49.404;7.734;2023-02-11T04:51:28;99047.31;;;0.36;100.00
23616;BME280;11985;49.404;7.734;2023-02-11T04:56:29;99047.50;;;0.33;100.00
23616;BME280;11985;49.404;7.734;2023-02-11T05:01:31;99033.25;;;0.40;100.00
23616;BME280;11985;49.404;7.734;2023-02-11T05:06:34;99039.00;;;0.31;100.00
23616;BME280;11985;49.404;7.734;2023-02-11T05:11:35;99044.41;;;0.28;100.00
23616;BME280;11985;49.404;7.734;2023-02-11T05:16:38;99044.19;;;0.31;100.00
23616;BME280;11985;49.404;7.734;2023-02-11T05:21:41;99071.31;;;0.25;100.00
23616;BME280;11985;49.404;7.734;2023-02-11T05:26:42;99057.34;;;0.28;100.00
23616;BME280;11985;49.404;7.734;2023-02-11T05:31:44;99060.78;;;0.29;100.00
23616;BME280;11985;49.404;7.734;2023-02-11T05:36:47;99075.28;;;0.31;100.00
23616;BME280;11985;49.404;7.734;2023-02-11T05:41:48;99071.56;;;0.35;100.00
23616;BME280;11985;49.404;7.734;2023-02-11T05:46:50;99083.34;;;0.53;100.00
23616;BME280;11985;49.404;7.734;2023-02-11T05:51:53;99085.38;;;0.63;100.00
23616;BME280;11985;49.404;7.734;2023-02-11T05:56:54;99096.13;;;0.57;100.00
23616;BME280;11985;49.404;7.734;2023-02-11T06:01:56;99078.66;;;0.46;100.00
23616;BME280;11985;49.404;7.734;2023-02-11T06:06:58;99082.63;;;0.51;100.00
23616;BME280;11985;49.404;7.734;2023-02-11T06:12:00;99077.25;;;0.55;100.00
23616;BME280;11985;49.404;7.734;2023-02-11T06:17:02;99074.78;;;0.66;100.00
23616;BME280;11985;49.404;7.734;2023-02-11T06:22:05;99072.94;;;0.68;100.00
23616;BME280;11985;49.404;7.734;2023-02-11T06:27:06;99059.31;;;0.51;100.00
23616;BME280;11985;49.404;7.734;2023-02-11T06:32:08;99042.63;;;0.56;100.00
23616;BME280;11985;49.404;7.734;2023-02-11T06:37:11;99041.59;;;0.58;100.00
23616;BME280;11985;49.404;7.734;2023-02-11T06:42:12;99054.88;;;0.66;100.00
23616;BME280;11985;49.404;7.734;2023-02-11T06:47:14;99073.66;;;0.70;100.00
23616;BME280;11985;49.404;7.734;2023-02-11T06:52:17;99075.03;;;0.75;100.00
23616;BME280;11985;49.404;7.734;2023-02-11T06:57:18;99081.78;;;0.78;100.00
23616;BME280;11985;49.404;7.734;2023-02-11T07:02:20;99083.34;;;0.81;100.00
23616;BME280;11985;49.404;7.734;2023-02-11T07:07:23;99093.22;;;0.88;100.00
23616;BME280;11985;49.404;7.734;2023-02-11T07:12:24;99079.00;;;0.94;100.00
23616;BME280;11985;49.404;7.734;2023-02-11T07:17:26;99087.31;;;0.99;100.00
23616;BME280;11985;49.404;7.734;2023-02-11T07:22:28;99097.50;;;1.02;100.00
23616;BME280;11985;49.404;7.734;2023-02-11T07:27:30;99100.53;;;1.09;100.00
23616;BME280;11985;49.404;7.734;2023-02-11T07:32:32;99099.72;;;1.08;100.00
23616;BME280;11985;49.404;7.734;2023-02-11T07:37:35;99089.31;;;1.08;100.00
23616;BME280;11985;49.404;7.734;2023-02-11T07:42:36;99094.41;;;1.10;100.00
23616;BME280;11985;49.404;7.734;2023-02-11T07:47:39;99081.66;;;1.07;100.00
23616;BME280;11985;49.404;7.734;2023-02-11T07:52:43;99094.63;;;1.07;100.00
23616;BME280;11985;49.404;7.734;2023-02-11T07:57:44;99085.31;;;1.17;100.00
23616;BME280;11985;49.404;7.734;2023-02-11T08:02:46;99094.88;;;1.29;100.00
23616;BME280;11985;49.404;7.734;2023-02-11T08:07:51;99093.41;;;1.38;100.00
23616;BME280;11985;49.404;7.734;2023-02-11T08:12:52;99101.94;;;1.52;100.00
23616;BME280;11985;49.404;7.734;2023-02-11T08:17:54;99106.09;;;1.68;100.00
23616;BME280;11985;49.404;7.734;2023-02-11T08:22:57;99102.56;;;1.69;100.00
23616;BME280;11985;49.404;7.734;2023-02-11T08:27:58;99104.44;;;1.79;100.00
23616;BME280;11985;49.404;7.734;2023-02-11T08:33:00;99104.13;;;1.84;100.00
23616;BME280;11985;49.404;7.734;2023-02-11T08:38:03;99103.38;;;1.82;100.00
23616;BME280;11985;49.404;7.734;2023-02-11T08:43:04;99104.72;;;2.00;100.00
23616;BME280;11985;49.404;7.734;2023-02-11T08:48:07;99126.22;;;2.02;100.00
23616;BME280;11985;49.404;7.734;2023-02-11T08:53:10;99126.00;;;2.05;100.00
23616;BME280;11985;49.404;7.734;2023-02-11T08:58:11;99128.94;;;2.01;100.00
23616;BME280;11985;49.404;7.734;2023-02-11T09:03:13;99131.00;;;2.08;100.00
23616;BME280;11985;49.404;7.734;2023-02-11T09:08:16;99133.03;;;2.29;100.00
23616;BME280;11985;49.404;7.734;2023-02-11T09:13:18;99134.53;;;2.44;100.00
23616;BME280;11985;49.404;7.734;2023-02-11T09:18:19;99122.34;;;2.57;100.00
23616;BME280;11985;49.404;7.734;2023-02-11T09:23:22;99125.88;;;2.56;100.00
23616;BME280;11985;49.404;7.734;2023-02-11T09:28:24;99120.63;;;2.69;100.00
23616;BME280;11985;49.404;7.734;2023-02-11T09:33:26;99133.63;;;2.93;100.00
23616;BME280;11985;49.404;7.734;2023-02-11T09:38:28;99144.72;;;2.84;100.00
23616;BME280;11985;49.404;7.734;2023-02-11T09:43:32;99144.09;;;3.04;100.00
23616;BME280;11985;49.404;7.734;2023-02-11T09:48:39;99136.22;;;2.93;99.51
23616;BME280;11985;49.404;7.734;2023-02-11T09:53:42;99139.16;;;2.88;100.00
23616;BME280;11985;49.404;7.734;2023-02-11T09:58:44;99147.59;;;2.92;100.00
23616;BME280;11985;49.404;7.734;2023-02-11T10:04:03;99153.88;;;2.89;100.00
23616;BME280;11985;49.404;7.734;2023-02-11T10:09:19;99146.75;;;2.91;100.00
23616;BME280;11985;49.404;7.734;2023-02-11T10:14:31;99138.38;;;2.99;100.00
23616;BME280;11985;49.404;7.734;2023-02-11T10:19:46;99146.25;;;3.10;100.00
23616;BME280;11985;49.404;7.734;2023-02-11T10:24:54;99144.13;;;3.15;100.00
23616;BME280;11985;49.404;7.734;2023-02-11T10:29:59;99153.06;;;3.24;100.00
23616;BME280;11985;49.404;7.734;2023-02-11T10:35:11;99159.50;;;3.07;100.00
23616;BME280;11985;49.404;7.734;2023-02-11T10:40:17;99164.59;;;3.09;100.00
23616;BME280;11985;49.404;7.734;2023-02-11T10:45:21;99159.75;;;3.15;100.00
23616;BME280;11985;49.404;7.734;2023-02-11T10:50:25;99156.75;;;3.33;100.00
23616;BME280;11985;49.404;7.734;2023-02-11T10:55:28;99143.44;;;3.60;100.00
23616;BME280;11985;49.404;7.734;2023-02-11T11:00:35;99135.63;;;3.60;100.00
23616;BME280;11985;49.404;7.734;2023-02-11T11:05:47;99142.97;;;3.77;100.00
23616;BME280;11985;49.404;7.734;2023-02-11T11:11:01;99139.19;;;3.81;100.00
23616;BME280;11985;49.404;7.734;2023-02-11T11:16:20;99141.00;;;4.03;100.00
23616;BME280;11985;49.404;7.734;2023-02-11T11:21:24;99141.91;;;4.47;100.00
23616;BME280;11985;49.404;7.734;2023-02-11T11:26:37;99135.28;;;4.43;100.00
23616;BME280;11985;49.404;7.734;2023-02-11T11:31:46;99134.13;;;4.24;100.00
23616;BME280;11985;49.404;7.734;2023-02-11T11:36:49;99127.22;;;4.46;100.00
23616;BME280;11985;49.404;7.734;2023-02-11T11:41:54;99115.16;;;4.77;100.00
23616;BME280;11985;49.404;7.734;2023-02-11T11:47:18;99127.00;;;4.81;100.00
23616;BME280;11985;49.404;7.734;2023-02-11T11:52:35;99121.00;;;5.01;100.00
23616;BME280;11985;49.404;7.734;2023-02-11T11:57:39;99119.34;;;5.21;99.09
23616;BME280;11985;49.404;7.734;2023-02-11T12:03:03;99113.38;;;5.30;97.89
23616;BME280;11985;49.404;7.734;2023-02-11T12:08:18;99116.00;;;5.51;98.01
23616;BME280;11985;49.404;7.734;2023-02-11T12:13:34;99119.47;;;5.82;95.87
23616;BME280;11985;49.404;7.734;2023-02-11T12:18:52;99120.88;;;5.87;93.92
23616;BME280;11985;49.404;7.734;2023-02-11T12:24:05;99121.31;;;5.61;93.85
23616;BME280;11985;49.404;7.734;2023-02-11T12:29:20;99123.19;;;5.80;94.93
23616;BME280;11985;49.404;7.734;2023-02-11T12:34:53;99127.59;;;5.79;93.27
23616;BME280;11985;49.404;7.734;2023-02-11T12:40:08;99118.25;;;5.56;93.42
23616;BME280;11985;49.404;7.734;2023-02-11T12:45:26;99119.50;;;5.41;94.92
23616;BME280;11985;49.404;7.734;2023-02-11T12:50:35;99117.81;;;5.61;95.28
23616;BME280;11985;49.404;7.734;2023-02-11T12:55:44;99115.78;;;5.64;95.37
23616;BME280;11985;49.404;7.734;2023-02-11T13:00:51;99109.91;;;5.09;96.02
23616;BME280;11985;49.404;7.734;2023-02-11T13:05:58;99112.75;;;5.17;98.54
23616;BME280;11985;49.404;7.734;2023-02-11T13:11:06;99111.56;;;5.10;99.53
23616;BME280;11985;49.404;7.734;2023-02-11T13:16:19;99115.63;;;5.35;99.85
23616;BME280;11985;49.404;7.734;2023-02-11T13:21:41;99115.72;;;5.54;98.24
23616;BME280;11985;49.404;7.734;2023-02-11T13:26:50;99116.00;;;5.72;97.68
23616;BME280;11985;49.404;7.734;2023-02-11T13:32:06;99110.66;;;5.53;96.75
23616;BME280;11985;49.404;7.734;2023-02-11T13:37:18;99113.63;;;5.07;98.51
23616;BME280;11985;49.404;7.734;2023-02-11T13:42:21;99113.00;;;5.14;99.47
23616;BME280;11985;49.404;7.734;2023-02-11T13:47:30;99112.13;;;4.93;100.00
23616;BME280;11985;49.404;7.734;2023-02-11T13:52:34;99111.44;;;4.91;100.00
23616;BME280;11985;49.404;7.734;2023-02-11T13:57:38;99113.44;;;5.19;100.00
23616;BME280;11985;49.404;7.734;2023-02-11T14:02:41;99109.06;;;5.41;100.00
23616;BME280;11985;49.404;7.734;2023-02-11T14:08:13;99102.31;;;5.17;100.00
23616;BME280;11985;49.404;7.734;2023-02-11T14:13:33;99102.09;;;5.09;100.00
23616;BME280;11985;49.404;7.734;2023-02-11T14:18:40;99100.66;;;5.05;100.00
23616;BME280;11985;49.404;7.734;2023-02-11T14:29:38;99090.19;;;5.58;100.00
23616;BME280;11985;49.404;7.734;2023-02-11T14:34:50;99093.69;;;5.47;100.00
23616;BME280;11985;49.404;7.734;2023-02-11T14:39:59;99087.47;;;5.18;100.00
23616;BME280;11985;49.404;7.734;2023-02-11T14:45:06;99096.41;;;5.04;100.00
23616;BME280;11985;49.404;7.734;2023-02-11T14:50:17;99098.25;;;4.92;100.00
23616;BME280;11985;49.404;7.734;2023-02-11T14:55:27;99098.41;;;5.12;100.00
23616;BME280;11985;49.404;7.734;2023-02-11T15:00:30;99101.59;;;5.15;100.00
23616;BME280;11985;49.404;7.734;2023-02-11T15:05:33;99116.88;;;5.20;100.00
23616;BME280;11985;49.404;7.734;2023-02-11T15:10:40;99114.03;;;5.23;100.00
23616;BME280;11985;49.404;7.734;2023-02-11T15:15:53;99125.50;;;5.32;100.00
23616;BME280;11985;49.404;7.734;2023-02-11T15:20:59;99122.94;;;5.62;100.00
23616;BME280;11985;49.404;7.734;2023-02-11T15:26:01;99123.69;;;5.74;100.00
23616;BME280;11985;49.404;7.734;2023-02-11T15:31:13;99120.50;;;5.70;100.00
23616;BME280;11985;49.404;7.734;2023-02-11T15:36:18;99112.81;;;5.48;100.00
23616;BME280;11985;49.404;7.734;2023-02-11T15:41:34;99106.38;;;5.52;100.00
23616;BME280;11985;49.404;7.734;2023-02-11T15:46:37;99098.03;;;5.37;100.00
23616;BME280;11985;49.404;7.734;2023-02-11T15:51:44;99110.91;;;5.29;100.00
23616;BME280;11985;49.404;7.734;2023-02-11T15:56:48;99116.22;;;5.39;100.00
23616;BME280;11985;49.404;7.734;2023-02-11T16:01:52;99113.78;;;5.47;100.00
23616;BME280;11985;49.404;7.734;2023-02-11T16:06:55;99119.25;;;5.44;100.00
23616;BME280;11985;49.404;7.734;2023-02-11T16:11:59;99115.41;;;5.48;100.00
23616;BME280;11985;49.404;7.734;2023-02-11T16:17:04;99125.06;;;5.47;100.00
23616;BME280;11985;49.404;7.734;2023-02-11T16:22:14;99134.09;;;5.43;100.00
23616;BME280;11985;49.404;7.734;2023-02-11T16:27:20;99145.88;;;5.38;100.00
23616;BME280;11985;49.404;7.734;2023-02-11T16:32:23;99151.75;;;5.30;100.00
23616;BME280;11985;49.404;7.734;2023-02-11T16:37:27;99146.22;;;5.23;100.00
23616;BME280;11985;49.404;7.734;2023-02-11T16:42:28;99153.78;;;5.26;100.00
23616;BME280;11985;49.404;7.734;2023-02-11T16:47:30;99157.25;;;5.48;100.00
23616;BME280;11985;49.404;7.734;2023-02-11T16:52:34;99165.28;;;5.56;100.00
23616;BME280;11985;49.404;7.734;2023-02-11T16:57:36;99173.88;;;5.47;100.00
23616;BME280;11985;49.404;7.734;2023-02-11T17:02:38;99159.91;;;5.37;100.00
23616;BME280;11985;49.404;7.734;2023-02-11T17:07:41;99163.31;;;5.16;100.00
23616;BME280;11985;49.404;7.734;2023-02-11T17:12:42;99156.25;;;5.07;100.00
23616;BME280;11985;49.404;7.734;2023-02-11T17:17:44;99162.63;;;5.14;100.00
23616;BME280;11985;49.404;7.734;2023-02-11T17:22:47;99164.28;;;5.15;100.00
23616;BME280;11985;49.404;7.734;2023-02-11T17:27:49;99172.69;;;5.19;100.00
23616;BME280;11985;49.404;7.734;2023-02-11T17:32:50;99173.47;;;5.30;100.00
23616;BME280;11985;49.404;7.734;2023-02-11T17:37:54;99181.91;;;5.34;100.00
23616;BME280;11985;49.404;7.734;2023-02-11T17:42:57;99181.78;;;5.36;100.00
23616;BME280;11985;49.404;7.734;2023-02-11T17:47:59;99176.78;;;5.33;100.00
23616;BME280;11985;49.404;7.734;2023-02-11T17:53:02;99180.66;;;5.17;100.00
23616;BME280;11985;49.404;7.734;2023-02-11T17:58:04;99173.44;;;5.10;100.00
23616;BME280;11985;49.404;7.734;2023-02-11T18:03:06;99184.28;;;4.94;100.00
23616;BME280;11985;49.404;7.734;2023-02-11T18:08:09;99184.53;;;4.91;100.00
23616;BME280;11985;49.404;7.734;2023-02-11T18:13:10;99186.63;;;5.08;100.00
23616;BME280;11985;49.404;7.734;2023-02-11T18:18:12;99191.13;;;5.17;100.00
23616;BME280;11985;49.404;7.734;2023-02-11T18:23:15;99187.28;;;5.21;100.00
23616;BME280;11985;49.404;7.734;2023-02-11T18:28:17;99195.75;;;5.14;100.00
23616;BME280;11985;49.404;7.734;2023-02-11T18:33:19;99206.84;;;4.95;100.00
23616;BME280;11985;49.404;7.734;2023-02-11T18:38:22;99203.66;;;4.91;100.00
23616;BME280;11985;49.404;7.734;2023-02-11T18:43:23;99204.00;;;4.87;100.00
23616;BME280;11985;49.404;7.734;2023-02-11T18:48:25;99208.53;;;4.85;100.00
23616;BME280;11985;49.404;7.734;2023-02-11T18:53:28;99203.31;;;4.85;100.00
23616;BME280;11985;49.404;7.734;2023-02-11T18:58:29;99202.34;;;4.86;100.00
23616;BME280;11985;49.404;7.734;2023-02-11T19:03:31;99210.78;;;4.89;100.00
23616;BME280;11985;49.404;7.734;2023-02-11T19:08:34;99206.00;;;5.06;100.00
23616;BME280;11985;49.404;7.734;2023-02-11T19:13:36;99202.72;;;5.24;100.00
23616;BME280;11985;49.404;7.734;2023-02-11T19:18:37;99201.97;;;5.34;100.00
23616;BME280;11985;49.404;7.734;2023-02-11T19:23:40;99200.09;;;5.24;100.00
23616;BME280;11985;49.404;7.734;2023-02-11T19:28:42;99198.22;;;5.15;100.00
23616;BME280;11985;49.404;7.734;2023-02-11T19:33:44;99204.78;;;5.10;100.00
23616;BME280;11985;49.404;7.734;2023-02-11T19:38:47;99202.31;;;4.97;100.00
23616;BME280;11985;49.404;7.734;2023-02-11T19:43:50;99199.53;;;4.78;100.00
23616;BME280;11985;49.404;7.734;2023-02-11T19:48:53;99196.34;;;4.63;100.00
23616;BME280;11985;49.404;7.734;2023-02-11T19:53:57;99206.91;;;4.50;100.00
23616;BME280;11985;49.404;7.734;2023-02-11T19:59:00;99202.88;;;4.35;100.00
23616;BME280;11985;49.404;7.734;2023-02-11T20:04:02;99208.31;;;4.32;100.00
23616;BME280;11985;49.404;7.734;2023-02-11T20:09:07;99209.53;;;4.39;100.00
23616;BME280;11985;49.404;7.734;2023-02-11T20:14:11;99212.38;;;4.47;100.00
23616;BME280;11985;49.404;7.734;2023-02-11T20:19:14;99225.41;;;4.58;100.00
23616;BME280;11985;49.404;7.734;2023-02-11T20:24:19;99223.00;;;4.66;100.00
23616;BME280;11985;49.404;7.734;2023-02-11T20:29:21;99225.19;;;4.61;100.00
23616;BME280;11985;49.404;7.734;2023-02-11T20:34:23;99231.59;;;4.46;100.00
23616;BME280;11985;49.404;7.734;2023-02-11T20:39:26;99224.94;;;4.31;100.00
23616;BME280;11985;49.404;7.734;2023-02-11T20:44:28;99232.53;;;4.22;100.00
23616;BME280;11985;49.404;7.734;2023-02-11T20:49:30;99228.72;;;4.15;100.00
23616;BME280;11985;49.404;7.734;2023-02-11T20:54:33;99230.63;;;4.13;100.00
23616;BME280;11985;49.404;7.734;2023-02-11T20:59:34;99227.88;;;4.15;100.00
23616;BME280;11985;49.404;7.734;2023-02-11T21:04:36;99226.44;;;4.11;100.00
23616;BME280;11985;49.404;7.734;2023-02-11T21:09:39;99229.66;;;4.03;100.00
23616;BME280;11985;49.404;7.734;2023-02-11T21:14:41;99219.69;;;4.08;100.00
23616;BME280;11985;49.404;7.734;2023-02-11T21:19:42;99215.94;;;4.23;100.00
23616;BME280;11985;49.404;7.734;2023-02-11T21:24:45;99226.59;;;4.32;100.00
23616;BME280;11985;49.404;7.734;2023-02-11T21:29:47;99217.59;;;4.24;100.00
23616;BME280;11985;49.404;7.734;2023-02-11T21:34:49;99221.22;;;4.11;100.00
23616;BME280;11985;49.404;7.734;2023-02-11T21:39:52;99218.53;;;4.12;100.00
23616;BME280;11985;49.404;7.734;2023-02-11T21:44:53;99214.47;;;4.08;100.00
23616;BME280;11985;49.404;7.734;2023-02-11T21:49:55;99221.69;;;4.05;100.00
23616;BME280;11985;49.404;7.734;2023-02-11T21:54:58;99220.63;;;3.96;100.00
23616;BME280;11985;49.404;7.734;2023-02-11T21:59:59;99218.50;;;3.90;100.00
23616;BME280;11985;49.404;7.734;2023-02-11T22:05:01;99223.94;;;3.98;100.00
23616;BME280;11985;49.404;7.734;2023-02-11T22:10:05;99217.31;;;4.05;100.00
23616;BME280;11985;49.404;7.734;2023-02-11T22:15:07;99229.91;;;4.11;100.00
23616;BME280;11985;49.404;7.734;2023-02-11T22:20:10;99236.31;;;4.07;100.00
23616;BME280;11985;49.404;7.734;2023-02-11T22:25:13;99245.63;;;3.98;100.00
23616;BME280;11985;49.404;7.734;2023-02-11T22:30:15;99239.94;;;3.93;100.00
23616;BME280;11985;49.404;7.734;2023-02-11T22:35:17;99247.25;;;3.88;100.00
23616;BME280;11985;49.404;7.734;2023-02-11T22:40:20;99252.22;;;3.80;100.00
23616;BME280;11985;49.404;7.734;2023-02-11T22:45:22;99244.25;;;3.70;100.00
23616;BME280;11985;49.404;7.734;2023-02-11T22:50:24;99251.00;;;3.62;100.00
23616;BME280;11985;49.404;7.734;2023-02-11T22:55:27;99246.00;;;3.59;100.00
23616;BME280;11985;49.404;7.734;2023-02-11T23:00:30;99240.63;;;3.49;100.00
23616;BME280;11985;49.404;7.734;2023-02-11T23:05:36;99248.38;;;3.38;100.00
23616;BME280;11985;49.404;7.734;2023-02-11T23:10:39;99260.91;;;3.33;100.00
23616;BME280;11985;49.404;7.734;2023-02-11T23:15:42;99265.91;;;3.36;100.00
23616;BME280;11985;49.404;7.734;2023-02-11T23:20:44;99255.69;;;3.33;100.00
23616;BME280;11985;49.404;7.734;2023-02-11T23:25:46;99257.22;;;3.24;100.00
23616;BME280;11985;49.404;7.734;2023-02-11T23:30:48;99249.97;;;3.16;100.00
23616;BME280;11985;49.404;7.734;2023-02-11T23:35:49;99247.78;;;3.10;100.00
23616;BME280;11985;49.404;7.734;2023-02-11T23:40:52;99244.97;;;3.13;100.00
23616;BME280;11985;49.404;7.734;2023-02-11T23:45:54;99239.97;;;3.10;100.00
23616;BME280;11985;49.404;7.734;2023-02-11T23:50:55;99243.31;;;3.12;100.00
23616;BME280;11985;49.404;7.734;2023-02-11T23:55:58;99248.72;;;3.09;100.00
